Time;durP1;ratioP1;P1;durP2;ratioP2;P2;SDS_P1;SDS_P2;PMS_P1;PMS_P2;Temp;Humidity;BMP_temperature;BMP_pressure;BME280_temperature;BME280_humidity;BME280_pressure;Samples;Min_cycle;Max_cycle;Signal;HPM_P1;HPM_P2
2022/01/08 03:40:15;;;;;;;1999.90;999.90;;;;;;;;;;5589188;22;20230;-73
2022/01/08 03:43:00;;;;;;;1999.90;999.90;;;;;;;;;;5046137;28;20486;-73
2022/01/08 03:45:45;;;;;;;1999.90;999.90;;;;;;;;;;5044589;28;20428;-73
2022/01/08 03:48:32;;;;;;;1999.90;999.90;;;;;;;;;;5049747;28;20255;-73
2022/01/08 03:51:18;;;;;;;1999.90;999.90;;;;;;;;;;5030567;28;20434;-72
2022/01/08 03:54:04;;;;;;;1999.90;999.90;;;;;;;;;;5021669;28;20454;-73
2022/01/08 03:56:51;;;;;;;1999.90;999.90;;;;;;;;;;5012338;28;20813;-73
2022/01/08 03:59:35;;;;;;;1999.90;999.90;;;;;;;;;;5012049;28;20911;-72
2022/01/08 04:02:20;;;;;;;1999.90;999.90;;;;;;;;;;5023342;28;20445;-74
2022/01/08 04:05:06;;;;;;;1999.90;999.90;;;;;;;;;;5017258;28;20475;-72
2022/01/08 04:07:51;;;;;;;1999.90;999.90;;;;;;;;;;5021832;28;20459;-73
2022/01/08 04:10:35;;;;;;;1999.90;999.90;;;;;;;;;;5029609;28;20434;-73
2022/01/08 04:13:25;;;;;;;1999.90;999.90;;;;;;;;;;5024853;28;20497;-72
2022/01/08 04:16:13;;;;;;;1999.90;999.90;;;;;;;;;;5029509;28;20215;-71
2022/01/08 04:18:59;;;;;;;1999.90;999.90;;;;;;;;;;5024944;28;20214;-72
2022/01/08 04:24:43;;;;;;;1999.90;999.90;;;;;;;;;;5011713;28;20733;-73
2022/01/08 04:27:28;;;;;;;1999.90;999.90;;;;;;;;;;5027135;28;20437;-72
2022/01/08 04:30:15;;;;;;;1999.90;999.90;;;;;;;;;;5016539;28;22043;-72
2022/01/08 04:33:00;;;;;;;1999.90;999.90;;;;;;;;;;5021189;28;20441;-73
2022/01/08 04:35:45;;;;;;;1999.90;999.90;;;;;;;;;;5021659;28;20457;-73
2022/01/08 04:38:31;;;;;;;1999.90;999.90;;;;;;;;;;5021916;28;20421;-73
2022/01/08 04:41:16;;;;;;;1999.90;999.90;;;;;;;;;;5006611;28;21032;-73
2022/01/08 04:44:01;;;;;;;1999.90;999.90;;;;;;;;;;5012862;28;20422;-73
2022/01/08 04:46:47;;;;;;;1999.90;999.90;;;;;;;;;;5011908;28;20423;-73
2022/01/08 04:49:34;;;;;;;1999.90;999.90;;;;;;;;;;5012247;28;20573;-73
2022/01/08 04:52:19;;;;;;;1999.90;999.90;;;;;;;;;;5012786;28;20420;-72
2022/01/08 04:55:04;;;;;;;1999.90;999.90;;;;;;;;;;5010917;28;20459;-72
2022/01/08 04:57:50;;;;;;;1999.90;999.90;;;;;;;;;;5012245;28;20941;-73
2022/01/08 05:00:36;;;;;;;1999.90;999.90;;;;;;;;;;5010960;28;21074;-72
2022/01/08 05:03:23;;;;;;;1999.90;999.90;;;;;;;;;;5012569;28;20958;-73
2022/01/08 05:06:08;;;;;;;1999.90;999.90;;;;;;;;;;5012232;28;20474;-72
2022/01/08 05:08:53;;;;;;;1999.90;999.90;;;;;;;;;;5012106;28;20940;-72
2022/01/08 05:11:38;;;;;;;1999.90;999.90;;;;;;;;;;5012242;28;20475;-72
2022/01/08 05:14:25;;;;;;;1999.90;999.90;;;;;;;;;;5009770;28;20843;-72
2022/01/08 05:17:10;;;;;;;1999.90;999.90;;;;;;;;;;5008292;28;21012;-73
2022/01/08 05:20:00;;;;;;;1999.90;999.90;;;;;;;;;;5009916;28;20485;-72
2022/01/08 05:22:52;;;;;;;1999.90;999.90;;;;;;;;;;5008018;28;20828;-72
2022/01/08 05:25:37;;;;;;;1999.90;999.90;;;;;;;;;;5009681;28;20469;-73
2022/01/08 05:28:22;;;;;;;1999.90;999.90;;;;;;;;;;5011865;28;20419;-72
2022/01/08 05:31:07;;;;;;;1999.90;999.90;;;;;;;;;;5011572;28;20523;-73
2022/01/08 05:33:53;;;;;;;1999.90;999.90;;;;;;;;;;4994196;28;21002;-73
2022/01/08 05:36:39;;;;;;;1999.90;999.90;;;;;;;;;;5011742;28;20936;-73
2022/01/08 05:39:24;;;;;;;1999.90;999.90;;;;;;;;;;5013156;28;20442;-73
2022/01/08 05:42:09;;;;;;;1999.90;999.90;;;;;;;;;;5023734;28;20685;-73
2022/01/08 05:44:54;;;;;;;1999.90;999.90;;;;;;;;;;5030405;28;20465;-72
2022/01/08 05:47:39;;;;;;;1999.90;999.90;;;;;;;;;;5023355;28;20430;-73
2022/01/08 05:50:24;;;;;;;1999.90;999.90;;;;;;;;;;5020599;28;20599;-72
2022/01/08 05:53:11;;;;;;;1999.90;999.90;;;;;;;;;;5012254;28;20220;-73
2022/01/08 05:55:55;;;;;;;1999.90;999.90;;;;;;;;;;5028825;28;20443;-72
2022/01/08 05:58:40;;;;;;;1999.90;999.90;;;;;;;;;;5016827;28;20592;-73
2022/01/08 06:01:25;;;;;;;1999.90;999.90;;;;;;;;;;5026279;28;20460;-73
2022/01/08 06:04:11;;;;;;;1999.90;999.90;;;;;;;;;;5022778;28;20505;-72
2022/01/08 06:06:55;;;;;;;1999.90;999.90;;;;;;;;;;5024276;28;20406;-73
2022/01/08 06:09:42;;;;;;;1999.90;999.90;;;;;;;;;;5025386;28;20473;-72
2022/01/08 06:12:27;;;;;;;1999.90;999.90;;;;;;;;;;5012946;28;20206;-72
2022/01/08 06:15:13;;;;;;;1999.90;999.90;;;;;;;;;;5032472;28;20214;-73
2022/01/08 06:17:58;;;;;;;1999.90;999.90;;;;;;;;;;5019114;28;20586;-73
2022/01/08 06:20:43;;;;;;;1999.90;999.90;;;;;;;;;;5027024;28;20736;-73
2022/01/08 06:23:28;;;;;;;1999.90;999.90;;;;;;;;;;5033082;28;20496;-72
2022/01/08 06:26:14;;;;;;;1999.90;999.90;;;;;;;;;;5026691;28;20942;-73
2022/01/08 06:28:59;;;;;;;1999.90;999.90;;;;;;;;;;5032952;28;21104;-72
2022/01/08 06:31:44;;;;;;;1999.90;999.90;;;;;;;;;;5015516;28;20414;-72
2022/01/08 06:34:29;;;;;;;1999.90;999.90;;;;;;;;;;5032433;28;20423;-73
2022/01/08 06:37:14;;;;;;;1999.90;999.90;;;;;;;;;;5016431;28;20454;-73
2022/01/08 06:40:01;;;;;;;1999.90;999.90;;;;;;;;;;5027440;28;20476;-73
2022/01/08 06:42:48;;;;;;;1999.90;999.90;;;;;;;;;;5021385;28;20458;-73
2022/01/08 06:45:33;;;;;;;1999.90;999.90;;;;;;;;;;5023986;28;20467;-72
2022/01/08 06:48:18;;;;;;;1999.90;999.90;;;;;;;;;;5026034;28;20452;-72
2022/01/08 06:51:02;;;;;;;1999.90;999.90;;;;;;;;;;5019716;28;20441;-73
2022/01/08 06:53:47;;;;;;;1999.90;999.90;;;;;;;;;;5031376;28;20500;-73
2022/01/08 06:56:32;;;;;;;1999.90;999.90;;;;;;;;;;5015825;28;20428;-73
2022/01/08 06:59:18;;;;;;;1999.90;999.90;;;;;;;;;;5024241;28;20533;-72
2022/01/08 07:02:04;;;;;;;1999.90;999.90;;;;;;;;;;5032380;28;20483;-73
2022/01/08 07:04:49;;;;;;;1999.90;999.90;;;;;;;;;;5022595;28;20425;-73
2022/01/08 07:07:34;;;;;;;1999.90;999.90;;;;;;;;;;5024068;28;20466;-73
2022/01/08 07:10:19;;;;;;;1999.90;999.90;;;;;;;;;;5025632;28;20620;-73
2022/01/08 07:13:04;;;;;;;1999.90;999.90;;;;;;;;;;5032599;28;20465;-73
2022/01/08 07:15:50;;;;;;;1999.90;999.90;;;;;;;;;;5014463;28;20510;-73
2022/01/08 07:18:35;;;;;;;1999.90;999.90;;;;;;;;;;5031490;28;20567;-73
2022/01/08 07:21:20;;;;;;;1999.90;999.90;;;;;;;;;;5031720;28;20462;-73
2022/01/08 07:24:05;;;;;;;1999.90;999.90;;;;;;;;;;5032866;28;20430;-71
2022/01/08 07:26:50;;;;;;;1999.90;999.90;;;;;;;;;;5033553;28;20477;-73
2022/01/08 07:29:36;;;;;;;1999.90;999.90;;;;;;;;;;5033456;28;20433;-70
2022/01/08 07:32:22;;;;;;;1999.90;999.90;;;;;;;;;;5034043;28;20431;-72
2022/01/08 07:35:08;;;;;;;1999.90;999.90;;;;;;;;;;5032471;28;20415;-71
2022/01/08 07:37:53;;;;;;;1999.90;999.90;;;;;;;;;;5016586;28;20482;-71
2022/01/08 07:40:38;;;;;;;1999.90;999.90;;;;;;;;;;5027348;28;20442;-69
2022/01/08 07:43:23;;;;;;;1999.90;999.90;;;;;;;;;;5028594;28;20425;-67
2022/01/08 07:46:09;;;;;;;1999.90;999.90;;;;;;;;;;5032289;28;20468;-71
2022/01/08 07:48:55;;;;;;;1999.90;999.90;;;;;;;;;;5013332;28;20300;-71
2022/01/08 07:51:40;;;;;;;1999.90;999.90;;;;;;;;;;5013888;28;20490;-71
2022/01/08 07:54:25;;;;;;;1999.90;999.90;;;;;;;;;;5013670;28;20792;-71
2022/01/08 07:57:11;;;;;;;1999.90;999.90;;;;;;;;;;5013521;28;20419;-70
2022/01/08 07:59:55;;;;;;;1999.90;999.90;;;;;;;;;;5013234;28;20435;-72
2022/01/08 08:02:40;;;;;;;1999.90;999.90;;;;;;;;;;5020065;28;20506;-75
2022/01/08 08:05:27;;;;;;;1999.90;999.90;;;;;;;;;;5034174;28;20459;-70
2022/01/08 08:08:14;;;;;;;1999.90;999.90;;;;;;;;;;5029148;28;20468;-70
2022/01/08 08:10:59;;;;;;;1999.90;999.90;;;;;;;;;;5026284;28;20560;-70
2022/01/08 08:13:44;;;;;;;1999.90;999.90;;;;;;;;;;5023950;28;20213;-70
2022/01/08 08:16:29;;;;;;;1999.90;999.90;;;;;;;;;;5027201;28;20466;-71
2022/01/08 08:19:14;;;;;;;1999.90;999.90;;;;;;;;;;5029541;28;20478;-72
2022/01/08 08:22:01;;;;;;;1999.90;999.90;;;;;;;;;;5013350;28;20430;-71
2022/01/08 08:24:46;;;;;;;1999.90;999.90;;;;;;;;;;5026296;28;21044;-70
2022/01/08 08:27:30;;;;;;;1999.90;999.90;;;;;;;;;;5032673;28;20840;-71
2022/01/08 08:30:15;;;;;;;1999.90;999.90;;;;;;;;;;5025117;28;20838;-70
2022/01/08 08:33:00;;;;;;;1999.90;999.90;;;;;;;;;;5026346;28;20419;-70
2022/01/08 08:35:45;;;;;;;1999.90;999.90;;;;;;;;;;5034895;28;20568;-70
2022/01/08 08:38:31;;;;;;;1999.90;999.90;;;;;;;;;;5024765;28;20213;-70
2022/01/08 08:41:16;;;;;;;1999.90;999.90;;;;;;;;;;5034408;28;20442;-70
2022/01/08 08:44:01;;;;;;;1999.90;999.90;;;;;;;;;;5026399;28;20324;-70
2022/01/08 08:46:46;;;;;;;1999.90;999.90;;;;;;;;;;5023761;28;20579;-70
2022/01/08 08:49:33;;;;;;;1999.90;999.90;;;;;;;;;;5030954;28;20357;-70
2022/01/08 08:52:18;;;;;;;1999.90;999.90;;;;;;;;;;5023409;28;20454;-70
2022/01/08 08:55:05;;;;;;;1999.90;999.90;;;;;;;;;;5020119;28;20580;-69
2022/01/08 08:57:50;;;;;;;1999.90;999.90;;;;;;;;;;5025636;28;20276;-69
2022/01/08 09:00:35;;;;;;;1999.90;999.90;;;;;;;;;;5028343;28;20277;-70
2022/01/08 09:03:21;;;;;;;1999.90;999.90;;;;;;;;;;5028649;28;20264;-69
2022/01/08 09:06:06;;;;;;;1999.90;999.90;;;;;;;;;;5023288;28;20342;-70
2022/01/08 09:08:51;;;;;;;1999.90;999.90;;;;;;;;;;5029480;28;20296;-71
2022/01/08 09:11:37;;;;;;;1999.90;999.90;;;;;;;;;;5028365;28;20586;-70
2022/01/08 09:14:22;;;;;;;1999.90;999.90;;;;;;;;;;5022026;28;20288;-70
2022/01/08 09:17:07;;;;;;;1999.90;999.90;;;;;;;;;;5023616;28;20209;-70
2022/01/08 09:19:53;;;;;;;1999.90;999.90;;;;;;;;;;5030374;28;20317;-70
2022/01/08 09:22:38;;;;;;;1999.90;999.90;;;;;;;;;;5023723;28;20292;-70
2022/01/08 09:25:23;;;;;;;1999.90;999.90;;;;;;;;;;5025169;28;20586;-69
2022/01/08 09:28:09;;;;;;;1999.90;999.90;;;;;;;;;;5028890;28;20210;-70
2022/01/08 09:30:55;;;;;;;1999.90;999.90;;;;;;;;;;5025129;28;20323;-69
2022/01/08 09:33:40;;;;;;;1999.90;999.90;;;;;;;;;;5012450;28;20593;-70
2022/01/08 09:36:25;;;;;;;1999.90;999.90;;;;;;;;;;5030049;28;20206;-71
2022/01/08 09:39:10;;;;;;;1999.90;999.90;;;;;;;;;;5030992;28;20230;-69
2022/01/08 09:41:56;;;;;;;1999.90;999.90;;;;;;;;;;5028437;28;20959;-71
2022/01/08 09:44:44;;;;;;;1999.90;999.90;;;;;;;;;;5022390;28;20214;-70
2022/01/08 09:47:30;;;;;;;1999.90;999.90;;;;;;;;;;5022615;28;20889;-70
2022/01/08 09:50:15;;;;;;;1999.90;999.90;;;;;;;;;;5029892;28;20276;-71
2022/01/08 09:53:00;;;;;;;1999.90;999.90;;;;;;;;;;5026745;28;20296;-70
2022/01/08 09:55:45;;;;;;;1999.90;999.90;;;;;;;;;;5027304;28;20230;-70
2022/01/08 09:58:30;;;;;;;1999.90;999.90;;;;;;;;;;5029004;28;20213;-69
2022/01/08 10:01:26;;;;;;;1999.90;999.90;;;;;;;;;;5021678;28;20334;-72
2022/01/08 10:04:23;;;;;;;1999.90;999.90;;;;;;;;;;5023174;28;20213;-71
2022/01/08 10:07:18;;;;;;;1999.90;999.90;;;;;;;;;;5028239;28;20225;-70
2022/01/08 10:10:12;;;;;;;1999.90;999.90;;;;;;;;;;5025097;28;20485;-70
2022/01/08 10:12:59;;;;;;;1999.90;999.90;;;;;;;;;;5016720;28;20202;-71
2022/01/08 10:18:51;;;;;;;1999.90;999.90;;;;;;;;;;5026800;28;20237;-70
2022/01/08 10:21:37;;;;;;;1999.90;999.90;;;;;;;;;;5026198;28;20748;-70
2022/01/08 10:24:23;;;;;;;1999.90;999.90;;;;;;;;;;5013894;28;20728;-69
2022/01/08 10:27:08;;;;;;;1999.90;999.90;;;;;;;;;;5019100;28;20222;-71
2022/01/08 10:29:54;;;;;;;1999.90;999.90;;;;;;;;;;5019841;28;20223;-69
2022/01/08 10:32:39;;;;;;;1999.90;999.90;;;;;;;;;;5012079;28;20258;-70
2022/01/08 10:35:38;;;;;;;1999.90;999.90;;;;;;;;;;5024148;28;20219;-69
2022/01/08 10:38:29;;;;;;;1999.90;999.90;;;;;;;;;;5026117;28;20198;-69
2022/01/08 10:41:15;;;;;;;1999.90;999.90;;;;;;;;;;5017102;28;20213;-69
2022/01/08 10:44:08;;;;;;;1999.90;999.90;;;;;;;;;;5019392;28;20314;-69
2022/01/08 10:46:58;;;;;;;1999.90;999.90;;;;;;;;;;5024674;28;20760;-69
2022/01/08 10:49:45;;;;;;;1999.90;999.90;;;;;;;;;;5024382;28;20230;-68
2022/01/08 10:52:41;;;;;;;1999.90;999.90;;;;;;;;;;5028495;28;20213;-68
2022/01/08 10:55:31;;;;;;;1999.90;999.90;;;;;;;;;;5017547;28;20217;-69
2022/01/08 10:58:17;;;;;;;1999.90;999.90;;;;;;;;;;5017316;28;20221;-69
2022/01/08 11:01:03;;;;;;;1999.90;999.90;;;;;;;;;;5022958;28;20242;-70
2022/01/08 11:03:48;;;;;;;1999.90;999.90;;;;;;;;;;5017849;28;20318;-70
2022/01/08 11:06:33;;;;;;;1999.90;999.90;;;;;;;;;;5022985;28;20222;-71
2022/01/08 11:09:18;;;;;;;1999.90;999.90;;;;;;;;;;5028301;28;20316;-70
2022/01/08 11:12:05;;;;;;;1999.90;999.90;;;;;;;;;;5032029;28;20198;-70
2022/01/08 11:17:55;;;;;;;1999.90;999.90;;;;;;;;;;5032646;28;20209;-70
2022/01/08 11:20:40;;;;;;;1999.90;999.90;;;;;;;;;;5020871;28;20600;-70
2022/01/08 11:23:26;;;;;;;1999.90;999.90;;;;;;;;;;5034149;28;20272;-70
2022/01/08 11:26:11;;;;;;;1999.90;999.90;;;;;;;;;;5033906;28;20268;-69
2022/01/08 11:29:00;;;;;;;1999.90;999.90;;;;;;;;;;5030265;28;20214;-70
2022/01/08 11:31:45;;;;;;;1999.90;999.90;;;;;;;;;;5028800;28;20211;-70
2022/01/08 11:34:31;;;;;;;1999.90;999.90;;;;;;;;;;5013378;28;20941;-70
2022/01/08 11:37:17;;;;;;;1999.90;999.90;;;;;;;;;;5014392;28;20424;-70
2022/01/08 11:40:04;;;;;;;1999.90;999.90;;;;;;;;;;5013713;28;20313;-69
2022/01/08 11:42:49;;;;;;;1999.90;999.90;;;;;;;;;;5014087;28;20226;-70
2022/01/08 11:45:37;;;;;;;1999.90;999.90;;;;;;;;;;5013906;28;20293;-70
2022/01/08 11:48:24;;;;;;;1999.90;999.90;;;;;;;;;;5013570;28;20230;-70
2022/01/08 11:51:15;;;;;;;1999.90;999.90;;;;;;;;;;5027495;28;20230;-70
2022/01/08 11:54:02;;;;;;;1999.90;999.90;;;;;;;;;;5013585;28;20218;-70
2022/01/08 11:56:47;;;;;;;1999.90;999.90;;;;;;;;;;5013519;28;20318;-71
2022/01/08 11:59:33;;;;;;;1999.90;999.90;;;;;;;;;;5023476;28;20234;-71
2022/01/08 12:02:20;;;;;;;1999.90;999.90;;;;;;;;;;5033297;28;20738;-69
2022/01/08 12:05:05;;;;;;;1999.90;999.90;;;;;;;;;;5031313;28;20218;-69
2022/01/08 12:07:52;;;;;;;1999.90;999.90;;;;;;;;;;5021076;28;20717;-69
2022/01/08 12:10:55;;;;;;;1999.90;999.90;;;;;;;;;;5012874;28;20582;-70
2022/01/08 12:13:42;;;;;;;1999.90;999.90;;;;;;;;;;5013486;28;20206;-70
2022/01/08 12:16:31;;;;;;;1999.90;999.90;;;;;;;;;;5019187;28;20588;-69
2022/01/08 12:19:29;;;;;;;1999.90;999.90;;;;;;;;;;5027520;28;20229;-70
2022/01/08 12:22:30;;;;;;;1999.90;999.90;;;;;;;;;;5032988;28;20205;-70
2022/01/08 12:25:35;;;;;;;1999.90;999.90;;;;;;;;;;5033139;28;20784;-69
2022/01/08 12:28:38;;;;;;;1999.90;999.90;;;;;;;;;;5032396;28;20213;-69
2022/01/08 12:31:38;;;;;;;1999.90;999.90;;;;;;;;;;5032802;28;20458;-68
2022/01/08 12:34:48;;;;;;;1999.90;999.90;;;;;;;;;;5032846;28;20609;-69
2022/01/08 12:37:37;;;;;;;1999.90;999.90;;;;;;;;;;5032308;28;20202;-71
2022/01/08 12:40:33;;;;;;;1999.90;999.90;;;;;;;;;;5020402;28;20325;-70
2022/01/08 12:43:20;;;;;;;1999.90;999.90;;;;;;;;;;5009284;28;20342;-70
2022/01/08 12:46:17;;;;;;;1999.90;999.90;;;;;;;;;;5010614;28;20211;-70
2022/01/08 12:49:15;;;;;;;1999.90;999.90;;;;;;;;;;5009670;28;20207;-70
2022/01/08 12:52:07;;;;;;;1999.90;999.90;;;;;;;;;;5010786;28;20591;-70
2022/01/08 12:54:54;;;;;;;1999.90;999.90;;;;;;;;;;5006555;28;20219;-70
2022/01/08 12:57:39;;;;;;;1999.90;999.90;;;;;;;;;;5004944;28;20206;-70
2022/01/08 13:00:24;;;;;;;1999.90;999.90;;;;;;;;;;5003688;28;20431;-69
2022/01/08 13:03:09;;;;;;;1999.90;999.90;;;;;;;;;;5004996;28;20326;-69
2022/01/08 13:05:54;;;;;;;1999.90;999.90;;;;;;;;;;5012193;28;20191;-72
2022/01/08 13:08:41;;;;;;;1999.90;999.90;;;;;;;;;;4992147;28;20231;-69
2022/01/08 13:11:29;;;;;;;1999.90;999.90;;;;;;;;;;4992606;28;20218;-70
2022/01/08 13:14:15;;;;;;;1999.90;999.90;;;;;;;;;;5004927;28;20218;-70
2022/01/08 13:17:01;;;;;;;1999.90;999.90;;;;;;;;;;5006133;28;20690;-69
2022/01/08 13:19:46;;;;;;;1999.90;999.90;;;;;;;;;;5002905;28;20225;-70
2022/01/08 13:22:31;;;;;;;1999.90;999.90;;;;;;;;;;5002346;28;20214;-72
2022/01/08 13:25:17;;;;;;;1999.90;999.90;;;;;;;;;;4996574;28;20212;-70
2022/01/08 13:28:03;;;;;;;1999.90;999.90;;;;;;;;;;4995388;28;20223;-70
2022/01/08 13:30:49;;;;;;;1999.90;999.90;;;;;;;;;;5001812;28;20594;-70
2022/01/08 13:33:33;;;;;;;1999.90;999.90;;;;;;;;;;4997155;28;20722;-70
2022/01/08 13:36:19;;;;;;;1999.90;999.90;;;;;;;;;;4997900;28;20765;-70
2022/01/08 13:39:04;;;;;;;1999.90;999.90;;;;;;;;;;5004112;28;20210;-70
2022/01/08 13:41:48;;;;;;;1999.90;999.90;;;;;;;;;;5011316;28;20207;-69
2022/01/08 13:44:35;;;;;;;1999.90;999.90;;;;;;;;;;4998565;28;20203;-70
2022/01/08 13:47:21;;;;;;;1999.90;999.90;;;;;;;;;;4998905;28;20306;-70
2022/01/08 13:50:12;;;;;;;1999.90;999.90;;;;;;;;;;5007883;28;20327;-68
2022/01/08 13:53:00;;;;;;;1999.90;999.90;;;;;;;;;;5009149;28;20210;-68
2022/01/08 13:55:46;;;;;;;1999.90;999.90;;;;;;;;;;5009183;28;20581;-71
2022/01/08 13:58:31;;;;;;;1999.90;999.90;;;;;;;;;;5008085;28;20471;-70
2022/01/08 14:01:18;;;;;;;1999.90;999.90;;;;;;;;;;5008463;28;20585;-69
2022/01/08 14:04:04;;;;;;;1999.90;999.90;;;;;;;;;;5009748;28;20214;-69
2022/01/08 14:06:49;;;;;;;1999.90;999.90;;;;;;;;;;5004504;28;20262;-71
2022/01/08 14:09:34;;;;;;;1999.90;999.90;;;;;;;;;;5006384;28;20226;-70
2022/01/08 14:12:19;;;;;;;1999.90;999.90;;;;;;;;;;4996550;28;20573;-70
2022/01/08 14:15:06;;;;;;;1999.90;999.90;;;;;;;;;;5011700;28;20274;-70
2022/01/08 14:17:52;;;;;;;1999.90;999.90;;;;;;;;;;4999861;28;20293;-69
2022/01/08 14:20:37;;;;;;;1999.90;999.90;;;;;;;;;;5009232;28;20265;-70
2022/01/08 14:23:26;;;;;;;1999.90;999.90;;;;;;;;;;5011613;28;20805;-70
2022/01/08 14:26:15;;;;;;;1999.90;999.90;;;;;;;;;;5000454;28;20405;-69
2022/01/08 14:29:00;;;;;;;1999.90;999.90;;;;;;;;;;5000744;28;20278;-69
2022/01/08 14:31:54;;;;;;;1999.90;999.90;;;;;;;;;;5007839;28;20211;-70
2022/01/08 14:34:47;;;;;;;1999.90;999.90;;;;;;;;;;5007346;28;20267;-70
2022/01/08 14:37:33;;;;;;;1999.90;999.90;;;;;;;;;;5008393;28;20566;-71
2022/01/08 14:40:20;;;;;;;1999.90;999.90;;;;;;;;;;5011755;28;20369;-70
2022/01/08 14:43:06;;;;;;;1999.90;999.90;;;;;;;;;;5023941;28;20333;-70
2022/01/08 14:45:51;;;;;;;1999.90;999.90;;;;;;;;;;5023095;28;20208;-69
2022/01/08 14:48:37;;;;;;;1999.90;999.90;;;;;;;;;;5020360;28;20246;-69
2022/01/08 14:51:29;;;;;;;1999.90;999.90;;;;;;;;;;5020823;28;20206;-70
2022/01/08 14:54:14;;;;;;;1999.90;999.90;;;;;;;;;;5030335;28;20214;-70
2022/01/08 14:56:59;;;;;;;1999.90;999.90;;;;;;;;;;5021140;28;20210;-70
2022/01/08 14:59:44;;;;;;;1999.90;999.90;;;;;;;;;;5030954;28;20252;-70
2022/01/08 15:02:30;;;;;;;1999.90;999.90;;;;;;;;;;5031613;28;20209;-70
2022/01/08 15:05:15;;;;;;;1999.90;999.90;;;;;;;;;;5033299;28;20217;-69
2022/01/08 15:08:02;;;;;;;1999.90;999.90;;;;;;;;;;5014308;28;20225;-67
2022/01/08 15:10:48;;;;;;;1999.90;999.90;;;;;;;;;;5028204;28;20225;-69
2022/01/08 15:13:33;;;;;;;1999.90;999.90;;;;;;;;;;5030377;28;20725;-70
2022/01/08 15:16:18;;;;;;;1999.90;999.90;;;;;;;;;;5031160;28;20213;-70
2022/01/08 15:19:03;;;;;;;1999.90;999.90;;;;;;;;;;5032709;28;20272;-69
2022/01/08 15:21:48;;;;;;;1999.90;999.90;;;;;;;;;;5026564;28;20688;-69
2022/01/08 15:24:34;;;;;;;1999.90;999.90;;;;;;;;;;5025895;28;20227;-69
2022/01/08 15:27:19;;;;;;;1999.90;999.90;;;;;;;;;;5032768;28;20407;-70
2022/01/08 15:30:05;;;;;;;1999.90;999.90;;;;;;;;;;5033763;28;20245;-70
2022/01/08 15:32:50;;;;;;;1999.90;999.90;;;;;;;;;;5014637;28;20270;-70
2022/01/08 15:35:35;;;;;;;1999.90;999.90;;;;;;;;;;5014990;28;20266;-69
2022/01/08 15:38:20;;;;;;;1999.90;999.90;;;;;;;;;;5030872;28;20276;-68
2022/01/08 15:41:06;;;;;;;1999.90;999.90;;;;;;;;;;5030380;28;20241;-71
2022/01/08 15:43:51;;;;;;;1999.90;999.90;;;;;;;;;;5031098;28;20248;-69
2022/01/08 15:46:37;;;;;;;1999.90;999.90;;;;;;;;;;5024486;28;20581;-69
2022/01/08 15:49:22;;;;;;;1999.90;999.90;;;;;;;;;;5026220;28;20315;-70
2022/01/08 15:52:07;;;;;;;1999.90;999.90;;;;;;;;;;5020271;28;20346;-70
2022/01/08 15:54:52;;;;;;;1999.90;999.90;;;;;;;;;;5025977;28;20774;-70
2022/01/08 15:57:38;;;;;;;1999.90;999.90;;;;;;;;;;5021781;28;20274;-72
2022/01/08 16:00:23;;;;;;;1999.90;999.90;;;;;;;;;;5029278;28;20228;-71
2022/01/08 16:03:08;;;;;;;1999.90;999.90;;;;;;;;;;5025795;28;20688;-71
2022/01/08 16:05:53;;;;;;;1999.90;999.90;;;;;;;;;;5026942;28;20576;-69
2022/01/08 16:08:38;;;;;;;1999.90;999.90;;;;;;;;;;5032757;28;20221;-70
2022/01/08 16:11:24;;;;;;;1999.90;999.90;;;;;;;;;;5033205;28;20264;-69
2022/01/08 16:14:10;;;;;;;1999.90;999.90;;;;;;;;;;5033871;28;20205;-71
2022/01/08 16:16:56;;;;;;;1999.90;999.90;;;;;;;;;;5034567;28;20198;-71
2022/01/08 16:19:41;;;;;;;1999.90;999.90;;;;;;;;;;5033344;28;20225;-69
2022/01/08 16:22:26;;;;;;;1999.90;999.90;;;;;;;;;;5034219;28;20209;-70
2022/01/08 16:25:11;;;;;;;1999.90;999.90;;;;;;;;;;5031826;28;20214;-68
2022/01/08 16:27:56;;;;;;;1999.90;999.90;;;;;;;;;;5021653;28;20445;-69
2022/01/08 16:30:43;;;;;;;1999.90;999.90;;;;;;;;;;5013978;28;20315;-70
2022/01/08 16:33:27;;;;;;;1999.90;999.90;;;;;;;;;;5013986;28;20211;-68
2022/01/08 16:36:12;;;;;;;1999.90;999.90;;;;;;;;;;5013242;28;20696;-71
2022/01/08 16:38:59;;;;;;;1999.90;999.90;;;;;;;;;;5023638;28;20249;-68
2022/01/08 16:41:44;;;;;;;1999.90;999.90;;;;;;;;;;5013027;28;20202;-68
2022/01/08 16:44:30;;;;;;;1999.90;999.90;;;;;;;;;;5012954;28;20226;-68
2022/01/08 16:47:17;;;;;;;1999.90;999.90;;;;;;;;;;5012938;28;20215;-68
2022/01/08 16:50:02;;;;;;;1999.90;999.90;;;;;;;;;;5012914;28;20226;-69
2022/01/08 16:52:47;;;;;;;1999.90;999.90;;;;;;;;;;5011665;28;20415;-69
2022/01/08 16:55:33;;;;;;;1999.90;999.90;;;;;;;;;;5009378;28;20206;-70
2022/01/08 16:58:18;;;;;;;1999.90;999.90;;;;;;;;;;5003723;28;20203;-71
2022/01/08 17:01:04;;;;;;;1999.90;999.90;;;;;;;;;;4992937;28;20317;-69
2022/01/08 17:03:52;;;;;;;1999.90;999.90;;;;;;;;;;4993085;28;20207;-68
2022/01/08 17:06:37;;;;;;;1999.90;999.90;;;;;;;;;;4992988;28;20270;-69
2022/01/08 17:09:22;;;;;;;1999.90;999.90;;;;;;;;;;4992338;28;20605;-69
2022/01/08 17:12:11;;;;;;;1999.90;999.90;;;;;;;;;;4992758;28;20218;-70
2022/01/08 17:14:56;;;;;;;1999.90;999.90;;;;;;;;;;4993414;28;20203;-69
2022/01/08 17:17:41;;;;;;;1999.90;999.90;;;;;;;;;;4996311;28;20215;-69
2022/01/08 17:20:29;;;;;;;1999.90;999.90;;;;;;;;;;4993295;28;20598;-69
2022/01/08 17:23:14;;;;;;;1999.90;999.90;;;;;;;;;;5001937;28;20226;-69
2022/01/08 17:26:00;;;;;;;1999.90;999.90;;;;;;;;;;5006861;28;20326;-69
2022/01/08 17:28:45;;;;;;;1999.90;999.90;;;;;;;;;;5011625;28;20290;-69
2022/01/08 17:31:30;;;;;;;1999.90;999.90;;;;;;;;;;5009145;28;20258;-70
2022/01/08 17:34:15;;;;;;;1999.90;999.90;;;;;;;;;;4992630;28;20211;-67
2022/01/08 17:37:01;;;;;;;1999.90;999.90;;;;;;;;;;4997665;28;20717;-69
2022/01/08 17:39:47;;;;;;;1999.90;999.90;;;;;;;;;;5007237;28;20227;-70
2022/01/08 17:42:34;;;;;;;1999.90;999.90;;;;;;;;;;5012024;28;20206;-69
2022/01/08 17:45:20;;;;;;;1999.90;999.90;;;;;;;;;;5011372;28;20222;-68
2022/01/08 17:48:05;;;;;;;1999.90;999.90;;;;;;;;;;5011429;28;20210;-69
2022/01/08 17:50:50;;;;;;;1999.90;999.90;;;;;;;;;;5001645;28;20334;-68
2022/01/08 17:53:36;;;;;;;1999.90;999.90;;;;;;;;;;4998992;28;20206;-69
2022/01/08 17:56:21;;;;;;;1999.90;999.90;;;;;;;;;;5011634;28;20685;-70
2022/01/08 17:59:06;;;;;;;1999.90;999.90;;;;;;;;;;4992907;28;20339;-71
2022/01/08 18:01:51;;;;;;;1999.90;999.90;;;;;;;;;;5000868;28;20315;-71
2022/01/08 18:04:40;;;;;;;1999.90;999.90;;;;;;;;;;5006541;28;20293;-71
2022/01/08 18:07:25;;;;;;;1999.90;999.90;;;;;;;;;;4998015;28;20207;-69
2022/01/08 18:10:12;;;;;;;1999.90;999.90;;;;;;;;;;5008920;28;20233;-71
2022/01/08 18:12:57;;;;;;;1999.90;999.90;;;;;;;;;;5012379;28;20700;-71
2022/01/08 18:15:42;;;;;;;1999.90;999.90;;;;;;;;;;5013183;28;20218;-71
2022/01/08 18:18:27;;;;;;;1999.90;999.90;;;;;;;;;;5014351;28;20404;-72
2022/01/08 18:21:13;;;;;;;1999.90;999.90;;;;;;;;;;5015667;28;20250;-70
2022/01/08 18:24:01;;;;;;;1999.90;999.90;;;;;;;;;;5015656;28;20735;-71
2022/01/08 18:26:48;;;;;;;1999.90;999.90;;;;;;;;;;5015630;28;20684;-71
2022/01/08 18:29:32;;;;;;;1999.90;999.90;;;;;;;;;;5014776;28;20618;-70
2022/01/08 18:32:17;;;;;;;1999.90;999.90;;;;;;;;;;5015304;28;20202;-70
2022/01/08 18:35:03;;;;;;;1999.90;999.90;;;;;;;;;;5015015;28;20210;-71
2022/01/08 18:37:48;;;;;;;1999.90;999.90;;;;;;;;;;5009641;28;20216;-68
2022/01/08 18:40:33;;;;;;;1999.90;999.90;;;;;;;;;;5020684;28;20229;-69
2022/01/08 18:43:19;;;;;;;1999.90;999.90;;;;;;;;;;5027085;28;20338;-70
2022/01/08 18:46:05;;;;;;;1999.90;999.90;;;;;;;;;;5024702;28;20437;-70
2022/01/08 18:48:50;;;;;;;1999.90;999.90;;;;;;;;;;5022717;28;20591;-69
2022/01/08 18:51:35;;;;;;;1999.90;999.90;;;;;;;;;;5026462;28;20288;-71
2022/01/08 18:54:21;;;;;;;1999.90;999.90;;;;;;;;;;5029697;28;20210;-71
2022/01/08 18:57:06;;;;;;;1999.90;999.90;;;;;;;;;;5029172;28;20273;-71
2022/01/08 18:59:54;;;;;;;1999.90;999.90;;;;;;;;;;5024845;28;20269;-70
2022/01/08 19:02:41;;;;;;;1999.90;999.90;;;;;;;;;;5030986;28;20252;-68
2022/01/08 19:05:26;;;;;;;1999.90;999.90;;;;;;;;;;5025903;28;20685;-68
2022/01/08 19:08:11;;;;;;;1999.90;999.90;;;;;;;;;;5020189;28;20729;-70
2022/01/08 19:10:56;;;;;;;1999.90;999.90;;;;;;;;;;5031678;28;20345;-68
2022/01/08 19:13:41;;;;;;;1999.90;999.90;;;;;;;;;;5025190;28;20596;-70
2022/01/08 19:16:27;;;;;;;1999.90;999.90;;;;;;;;;;5021780;28;20701;-66